Silver Bay Municipal, MN

8:37 AM CDT on October 24, 2014 (GMT -0500)
Ely Municipal | Change Station
CLOSE
Current Station
Airport
Location: Ely,
Elevation: 1453 ft
Nearby Weather Stations
Active Advisory: Dense Fog Advisory

Elev 1453 ft 47.82 °N, 91.83 °W | Updated 25 minutes ago

Fog
Fog
50 °F
Feels Like 50 °F
N
7
Wind Variable Wind from SSW

Today
High -- | Low -- °F
--% Chance of Precip.
Yesterday
High -- | Low -- °F
Precip. -- in
7:37 AM 6:01 PM
New Moon, 0% visible
Pressure 29.83 in
Visibility 10.0 miles
Clouds Clear
Dew Point 45 °F
Humidity 82%
Rainfall 0.00 in
Snow Depth Not available.
UV 0 out of 12
Pollen 2.00 out of 12
Air Quality Not available.
Flu Activity Sporadic
METAR KELO 241312Z AUTO 21006KT 10SM CLR 10/07 A2983 RMK AO2

More Conditions Fewer Conditions

Pressure 29.83 in
Visibility 10.0 miles
Clouds Clear
Dew Point 45 °F
Humidity 82%
Rainfall 0.00 in
Snow Depth Not available.
UV 0 out of 12
Pollen 2.00 out of 12
Air Quality Not available.
Flu Activity Sporadic
METAR KELO 241312Z AUTO 21006KT 10SM CLR 10/07 A2983 RMK AO2

More Conditions Fewer Conditions

10-Day Weather Forecast

Almanac

Astronomy

Oct. 24, 2014 Rise Set
Actual Time 7:37 AM CDT 6:01 PM CDT
Civil Twilight 7:05 AM CDT 6:33 PM CDT
Nautical Twilight 6:29 AM CDT 7:08 PM CDT
Astronomical Twilight 5:54 AM CDT 7:44 PM CDT
Moon 8:18 AM CDT 6:38 PM CDT
Length of Visible Light 11h 27m
Length of Day
10h 24m
Tomorrow will be 3m 10s shorter.
New Moon, 0% of the Moon is Illuminated
Today
New Moon
Oct 30
First Quarter
Nov 6
Full
Nov 14
Last Quarter
Nov 22
New

Today's Extremes

State Highs State Lows

Community

WunderPhotos

Upload Photos

1,764,550 photos uploaded!

WunderBlogs® & News

Nearby

Snow Depth

Station Depth Elevation
No new snow has been reported.

Earthquake Activity

City Distance Mag. Time & Date
No recent earthquake activity has been reported nearby.
Minimum magnitude displayed is 2.5.

Coastal Water Temperatures

Place Temperature
Duluth, MN 54.0 °F

Nearby Weather Stations